Terminal Aerodrome Forecast
Issued by NWS

Current Version | Previous Version | Graphics & Text | Print | Product List | Glossary On
Versions: 1 2 3 4 5 6 7 8 9 10 11 12 13 14 15 16 17 18 19 20 21 22
000
FTUS41 KPBZ 230520
TAFHLG
TAF
KHLG 230520Z 2306/2406 VRB03KT 4SM BR SCT005 BKN040
      TEMPO 2306/2308 1 1/2SM -RA BR BKN005
     FM230800 01003KT 1 1/2SM BR BKN060
     FM231000 02003KT 1/2SM FG OVC001
     FM231300 36007KT P6SM SCT040=

USA.gov is the U.S. government's official web portal to all federal, state and local government web resources and services.